Time;durP1;ratioP1;P1;durP2;ratioP2;P2;SDS_P1;SDS_P2;PMS_P1;PMS_P2;Temp;Humidity;BMP_temperature;BMP_pressure;BME280_temperature;BME280_humidity;BME280_pressure;Samples;Min_cycle;Max_cycle;Signal;HPM_P1;HPM_P2
2021/10/22 00:00:10;;;;;;;;;0.00;0.00;;;;;12.05;80.14;99360.00;6302673;20;1796166;-38
2021/10/22 00:02:38;;;;;;;;;0.00;0.00;;;;;11.82;81.68;99352.69;6320875;20;2727355;-39
2021/10/22 00:05:08;;;;;;;;;1.25;1.25;;;;;11.82;81.55;99369.72;6304969;20;1802649;-38
2021/10/22 00:07:36;;;;;;;;;1.00;1.00;;;;;11.79;81.99;99361.84;6321549;20;2730560;-38
2021/10/22 00:10:07;;;;;;;;;0.00;0.00;;;;;11.81;81.72;99359.91;6303252;20;1803488;-38
2021/10/22 00:12:36;;;;;;;;;1.50;0.00;;;;;11.72;82.62;99367.81;6337885;20;1799279;-38
2021/10/22 00:15:08;;;;;;;;;0.00;0.00;;;;;11.70;82.84;99359.81;6335216;20;1803604;-38
2021/10/22 00:17:38;;;;;;;;;0.00;0.00;;;;;11.77;82.21;99371.00;6319447;20;2733766;-38
2021/10/22 00:20:09;;;;;;;;;0.00;0.00;;;;;11.71;82.95;99374.13;6288336;20;2736132;-38
2021/10/22 00:22:39;;;;;;;;;0.00;0.00;;;;;11.77;82.37;99366.50;6295609;20;2732551;-38
2021/10/22 00:25:08;;;;;;;;;2.00;0.00;;;;;11.80;80.84;99366.28;6305293;20;1803490;-38
2021/10/22 00:27:35;;;;;;;;;2.00;0.00;;;;;11.81;81.30;99367.97;6316653;20;2455494;-39
2021/10/22 00:30:05;;;;;;;;;0.00;0.00;;;;;11.83;79.80;99376.81;6288586;20;2728419;-42
2021/10/22 00:32:34;;;;;;;;;1.00;0.00;;;;;11.85;78.92;99382.09;6286540;20;2731547;-42
2021/10/22 00:35:04;;;;;;;;;0.00;0.00;;;;;11.87;80.32;99377.47;6302310;20;1807635;-42
2021/10/22 00:37:32;;;;;;;;;0.00;0.00;;;;;11.84;79.60;99377.66;6319437;20;2725283;-43
2021/10/22 00:40:00;;;;;;;;;0.00;0.00;;;;;11.74;80.33;99376.59;6287287;20;2731490;-45
2021/10/22 00:42:27;;;;;;;;;0.00;0.00;;;;;11.81;79.59;99370.66;6289338;20;2729427;-42
2021/10/22 00:44:55;;;;;;;;;1.00;0.00;;;;;11.73;80.12;99374.88;6289025;20;2735763;-42
2021/10/22 00:47:23;;;;;;;;;0.00;0.00;;;;;11.54;80.27;99376.19;6283460;20;2735743;-42
2021/10/22 00:49:52;;;;;;;;;0.00;0.00;;;;;11.45;80.76;99363.38;6302918;20;1804745;-43
2021/10/22 00:52:27;;;;;;;;;0.50;0.00;;;;;11.62;80.58;99365.75;6315577;20;2726304;-42
2021/10/22 00:54:57;;;;;;;;;0.50;0.00;;;;;11.61;80.01;99372.13;6288541;20;2727376;-42
2021/10/22 00:57:25;;;;;;;;;0.00;0.00;;;;;11.71;79.31;99374.13;6285049;20;2728432;-42
2021/10/22 00:59:54;;;;;;;;;0.25;0.25;;;;;11.67;78.79;99369.97;6303816;20;1803665;-42
2021/10/22 01:02:22;;;;;;;;;0.00;0.00;;;;;11.66;79.43;99374.44;6318013;20;2729576;-41
2021/10/22 01:04:51;;;;;;;;;0.50;0.50;;;;;11.61;79.86;99376.59;6300580;20;1803536;-42
2021/10/22 01:07:19;;;;;;;;;0.75;0.00;;;;;11.67;78.90;99372.66;6334950;20;1803491;-41
2021/10/22 01:09:47;;;;;;;;;0.00;0.00;;;;;11.76;77.88;99369.28;6315591;20;2727338;-42
2021/10/22 01:12:16;;;;;;;;;2.00;0.00;;;;;11.89;76.99;99369.31;6300935;20;1805558;-43
2021/10/22 01:14:45;;;;;;;;;1.50;1.00;;;;;11.90;77.40;99381.75;6332370;20;1803498;-42
2021/10/22 01:17:37;;;;;;;;;1.25;1.00;;;;;11.87;78.12;99369.41;6329025;20;1802467;-42
2021/10/22 01:20:14;;;;;;;;;1.00;1.00;;;;;11.79;78.19;99377.13;6317462;20;2742173;-44
2021/10/22 01:22:47;;;;;;;;;2.00;1.00;;;;;11.84;78.84;99377.66;6235455;20;6297637;-43
2021/10/22 01:25:24;;;;;;;;;2.00;0.75;;;;;11.77;79.03;99376.38;6334155;20;1803921;-41
2021/10/22 01:27:53;;;;;;;;;2.50;2.50;;;;;11.76;79.34;99378.22;6318390;20;2753395;-42
2021/10/22 01:30:25;;;;;;;;;2.50;1.00;;;;;11.70;79.81;99377.81;6289713;20;2725246;-42
2021/10/22 01:33:05;;;;;;;;;2.00;2.00;;;;;11.58;79.26;99382.19;6301378;20;1809744;-44
2021/10/22 01:35:34;;;;;;;;;1.00;1.00;;;;;11.48;79.83;99376.63;6318720;20;2725295;-42
2021/10/22 01:38:05;;;;;;;;;2.00;2.00;;;;;11.53;79.46;99378.97;6286580;20;2733583;-42
2021/10/22 01:40:33;;;;;;;;;1.00;1.00;;;;;11.61;78.88;99388.25;6301226;20;1803607;-41
2021/10/22 01:43:01;;;;;;;;;3.00;1.50;;;;;11.77;77.58;99387.13;6315489;20;2726391;-41
2021/10/22 01:45:30;;;;;;;;;2.25;1.00;;;;;11.68;77.65;99393.19;6300719;20;1808757;-42
2021/10/22 01:47:57;;;;;;;;;0.50;0.50;;;;;11.63;78.39;99405.09;6318617;20;2727462;-43
2021/10/22 01:50:26;;;;;;;;;3.00;0.25;;;;;11.64;77.84;99409.53;6302489;20;1807682;-41
2021/10/22 01:52:54;;;;;;;;;0.00;0.00;;;;;11.80;78.19;99419.22;6318316;20;2726429;-42
2021/10/22 01:55:24;;;;;;;;;1.00;1.00;;;;;11.63;78.39;99412.31;6301331;20;1807666;-41
2021/10/22 01:57:51;;;;;;;;;1.00;1.00;;;;;11.70;79.25;99416.31;6316920;20;2739828;-43
2021/10/22 02:00:19;;;;;;;;;3.50;1.00;;;;;11.62;79.90;99416.00;6288834;20;2730531;-41
2021/10/22 02:02:47;;;;;;;;;3.00;0.00;;;;;11.68;79.67;99420.94;6285476;20;2727358;-42
2021/10/22 02:05:16;;;;;;;;;1.00;1.00;;;;;11.52;80.25;99428.34;6302751;20;1801412;-42
2021/10/22 02:07:44;;;;;;;;;2.00;0.00;;;;;11.39;81.71;99431.03;6318902;20;2731499;-44
2021/10/22 02:10:13;;;;;;;;;0.00;0.00;;;;;11.50;80.96;99425.75;6301971;20;1803519;-43
2021/10/22 02:12:40;;;;;;;;;4.00;1.00;;;;;11.33;81.73;99424.25;6317218;20;2736724;-42
2021/10/22 02:15:09;;;;;;;;;1.00;1.00;;;;;11.33;82.42;99424.25;6302714;20;1803494;-41
2021/10/22 02:17:37;;;;;;;;;2.00;1.00;;;;;11.47;81.60;99419.75;6315414;20;2737767;-42
2021/10/22 02:20:07;;;;;;;;;0.75;0.50;;;;;11.41;82.11;99410.28;6298376;20;1800353;-42
2021/10/22 02:22:35;;;;;;;;;0.00;0.00;;;;;11.49;81.07;99413.28;6318728;20;2726521;-41
2021/10/22 02:25:06;;;;;;;;;1.25;0.00;;;;;11.34;81.88;99411.66;6301268;20;1806730;-40
2021/10/22 02:27:35;;;;;;;;;2.00;1.00;;;;;11.34;81.90;99406.28;6319117;20;2736740;-42
2021/10/22 02:30:22;;;;;;;;;0.00;0.00;;;;;11.28;82.11;99406.72;6303725;20;1803392;-42
2021/10/22 02:32:50;;;;;;;;;0.00;0.00;;;;;11.48;81.17;99416.97;6329676;20;1802568;-43
2021/10/22 02:35:19;;;;;;;;;2.00;0.00;;;;;11.26;82.39;99416.72;6335696;20;1802467;-42
2021/10/22 02:37:48;;;;;;;;;0.75;0.75;;;;;11.42;82.14;99420.06;6333118;20;1803499;-42
2021/10/22 02:40:17;;;;;;;;;0.00;0.00;;;;;11.36;82.25;99415.13;6330256;20;1802938;-42
2021/10/22 02:42:45;;;;;;;;;0.00;0.00;;;;;11.29;82.85;99411.13;6318503;20;2733596;-43
2021/10/22 02:45:15;;;;;;;;;4.00;1.00;;;;;11.29;83.05;99411.13;6299930;20;1805573;-42
2021/10/22 02:47:43;;;;;;;;;0.00;0.00;;;;;11.44;82.59;99407.38;6317725;20;2727330;-44
2021/10/22 02:50:13;;;;;;;;;0.00;0.00;;;;;11.43;83.01;99417.28;6301722;20;1802515;-42
2021/10/22 02:52:41;;;;;;;;;0.00;0.00;;;;;11.29;83.14;99429.94;6317758;20;2724208;-42
2021/10/22 02:55:10;;;;;;;;;2.75;1.00;;;;;11.23;83.59;99446.50;6302693;20;1809804;-42
2021/10/22 02:57:39;;;;;;;;;2.00;1.00;;;;;11.13;84.08;99457.84;6332698;20;1805565;-41
2021/10/22 03:00:09;;;;;;;;;1.00;1.00;;;;;11.10;84.28;99466.13;6316473;20;2732563;-43
2021/10/22 03:02:36;;;;;;;;;0.00;0.00;;;;;11.24;84.51;99470.56;6285481;20;2729562;-42
2021/10/22 03:05:07;;;;;;;;;1.50;0.00;;;;;11.19;84.24;99464.66;6303930;20;1802445;-41
2021/10/22 03:07:36;;;;;;;;;1.50;0.00;;;;;11.14;84.60;99470.34;6332110;20;1805629;-44
2021/10/22 03:10:07;;;;;;;;;2.00;1.00;;;;;11.26;84.44;99483.91;6332731;20;1801396;-43
2021/10/22 03:12:37;;;;;;;;;0.00;0.00;;;;;11.29;83.63;99497.13;6318369;20;2460783;-43
2021/10/22 03:15:08;;;;;;;;;2.25;1.00;;;;;11.21;84.17;99506.56;6300501;20;1806624;-42
2021/10/22 03:17:36;;;;;;;;;0.00;0.00;;;;;11.25;83.93;99511.75;6317117;20;2727532;-44
2021/10/22 03:20:05;;;;;;;;;1.00;1.00;;;;;11.33;83.79;99501.34;6300356;20;1802893;-42
2021/10/22 03:22:34;;;;;;;;;1.00;1.00;;;;;11.36;83.93;99514.56;6331361;20;1807672;-42
2021/10/22 03:25:04;;;;;;;;;0.00;0.00;;;;;11.35;84.24;99510.16;6318185;20;3400227;-41
2021/10/22 03:27:34;;;;;;;;;1.75;0.00;;;;;11.21;84.93;99503.88;6301657;20;1803244;-41
2021/10/22 03:30:04;;;;;;;;;1.00;1.00;;;;;11.46;84.19;99507.59;6315521;20;2738804;-45
2021/10/22 03:32:33;;;;;;;;;1.00;1.00;;;;;11.28;85.10;99515.09;6285761;20;2744171;-42
2021/10/22 03:35:03;;;;;;;;;1.50;1.00;;;;;11.13;85.57;99505.34;6285970;20;2735656;-41
2021/10/22 03:37:33;;;;;;;;;3.50;1.00;;;;;11.26;85.05;99514.31;6300625;20;1806616;-43
2021/10/22 03:40:03;;;;;;;;;0.50;0.50;;;;;11.25;85.22;99519.81;6329590;20;1804550;-42
2021/10/22 03:42:31;;;;;;;;;7.00;0.00;;;;;11.27;85.67;99515.19;6317318;20;2748164;-41
2021/10/22 03:44:59;;;;;;;;;1.00;1.00;;;;;11.24;85.47;99518.94;6300346;20;1806617;-42
2021/10/22 03:47:27;;;;;;;;;0.00;0.00;;;;;11.43;85.53;99519.44;6317653;20;2733678;-41
2021/10/22 03:49:56;;;;;;;;;2.50;1.00;;;;;11.29;86.25;99521.31;6300810;20;1803470;-41
2021/10/22 03:52:24;;;;;;;;;2.00;2.00;;;;;11.36;85.90;99522.63;6315847;20;2744170;-43
2021/10/22 03:54:52;;;;;;;;;4.00;4.00;;;;;11.32;86.11;99526.47;6280764;20;2750251;-41
2021/10/22 03:57:21;;;;;;;;;3.50;2.00;;;;;11.27;86.25;99528.63;6304228;20;1811828;-41
2021/10/22 03:59:49;;;;;;;;;0.50;0.50;;;;;11.20;87.15;99530.88;6333211;20;1804396;-41
2021/10/22 04:02:17;;;;;;;;;1.00;1.00;;;;;11.14;87.38;99525.91;6319425;20;2738210;-41
2021/10/22 04:04:48;;;;;;;;;1.60;1.60;;;;;11.12;88.09;99535.88;6328853;20;2731556;-41
2021/10/22 04:07:17;;;;;;;;;3.00;1.00;;;;;11.10;88.26;99525.22;6335946;20;1806696;-42
2021/10/22 04:09:45;;;;;;;;;1.00;1.00;;;;;11.13;88.10;99527.72;6318857;20;2728427;-43
2021/10/22 04:12:13;;;;;;;;;2.50;1.00;;;;;11.10;88.12;99527.06;6303485;20;1800922;-48
2021/10/22 04:14:41;;;;;;;;;3.00;2.00;;;;;11.12;88.48;99538.56;6319816;20;2740908;-40
2021/10/22 04:17:09;;;;;;;;;1.00;1.00;;;;;11.13;88.55;99525.03;6293706;20;2725319;-41
2021/10/22 04:19:37;;;;;;;;;5.50;1.50;;;;;11.10;88.16;99524.38;6291704;20;2748187;-42
2021/10/22 04:22:05;;;;;;;;;1.00;1.00;;;;;11.06;88.64;99525.53;6308543;20;1800156;-42
2021/10/22 04:24:33;;;;;;;;;2.00;2.00;;;;;11.08;88.81;99524.47;6320224;20;2753397;-41
2021/10/22 04:27:02;;;;;;;;;0.00;0.00;;;;;11.15;88.18;99520.41;6309116;20;1787818;-41
2021/10/22 04:29:30;;;;;;;;;1.25;1.25;;;;;11.10;88.86;99517.16;6339545;20;1805173;-41
2021/10/22 04:31:59;;;;;;;;;3.00;1.25;;;;;11.09;89.28;99518.16;6336958;20;1800347;-41
2021/10/22 04:34:28;;;;;;;;;1.50;1.00;;;;;11.02;89.53;99521.34;6324686;20;2730486;-41
2021/10/22 04:42:30;;;;;;;;;2.00;2.00;;;;;10.98;90.77;99518.00;6307654;20;1810798;-42
2021/10/22 04:44:58;;;;;;;;;1.00;1.00;;;;;10.86;90.74;99524.16;6339194;20;1799274;-40
2021/10/22 04:47:26;;;;;;;;;2.00;2.00;;;;;10.73;91.66;99519.59;6318655;20;2752450;-42
2021/10/22 04:49:54;;;;;;;;;2.00;2.00;;;;;10.83;91.82;99516.31;6292228;20;2739862;-40
2021/10/22 04:52:22;;;;;;;;;1.00;1.00;;;;;10.62;92.52;99511.38;6292362;20;2729435;-41
2021/10/22 04:54:50;;;;;;;;;4.25;1.00;;;;;10.88;92.11;99516.88;6306846;20;1809787;-41
2021/10/22 04:57:18;;;;;;;;;3.50;2.00;;;;;10.71;92.96;99510.75;6318449;20;2751312;-42
2021/10/22 04:59:45;;;;;;;;;4.00;3.00;;;;;10.64;93.10;99519.34;6293517;20;2748222;-41
2021/10/22 05:02:13;;;;;;;;;2.00;2.00;;;;;10.66;93.37;99512.03;6291890;20;2744072;-41
2021/10/22 05:04:41;;;;;;;;;3.00;3.00;;;;;10.67;93.64;99524.50;6291589;20;2735726;-41
2021/10/22 05:07:09;;;;;;;;;2.00;2.00;;;;;10.52;94.25;99531.72;6291652;20;2751377;-41
2021/10/22 05:09:36;;;;;;;;;3.00;3.00;;;;;10.45;94.35;99541.09;6290967;20;2741940;-41
2021/10/22 05:12:07;;;;;;;;;3.00;3.00;;;;;10.47;94.97;99533.84;6292168;20;2744091;-41
2021/10/22 05:14:37;;;;;;;;;3.20;3.20;;;;;10.28;95.83;99520.72;6313545;20;2739879;-41
2021/10/22 05:17:05;;;;;;;;;5.00;3.00;;;;;10.24;96.24;99530.75;6336594;20;1809871;-41
2021/10/22 05:19:34;;;;;;;;;3.75;3.75;;;;;10.37;96.23;99533.53;6339002;20;1807667;-42
2021/10/22 05:22:02;;;;;;;;;4.00;3.00;;;;;10.55;96.07;99520.78;6320784;20;2741911;-42
2021/10/22 05:24:30;;;;;;;;;5.00;3.00;;;;;10.38;96.07;99540.66;6289118;20;2752334;-42
2021/10/22 05:26:58;;;;;;;;;4.00;4.00;;;;;10.24;97.12;99543.28;6286708;20;2746511;-43
2021/10/22 05:29:27;;;;;;;;;5.25;3.00;;;;;10.35;97.02;99542.66;6305087;20;1811884;-41
2021/10/22 05:31:55;;;;;;;;;6.00;4.00;;;;;10.38;96.31;99551.38;6320538;20;2747166;-41
2021/10/22 05:34:22;;;;;;;;;3.50;2.50;;;;;10.41;96.32;99551.19;6288102;20;2749186;-41
2021/10/22 05:36:52;;;;;;;;;7.00;4.00;;;;;10.30;96.50;99553.69;6289460;20;2746179;-42
2021/10/22 05:39:22;;;;;;;;;5.00;3.00;;;;;10.19;97.31;99556.13;6304709;20;1819140;-41
2021/10/22 05:41:51;;;;;;;;;6.00;6.00;;;;;10.29;98.01;99571.63;6316644;20;2746131;-43
2021/10/22 05:44:20;;;;;;;;;5.50;4.50;;;;;10.23;97.59;99582.69;6289280;20;2751416;-43
2021/10/22 05:46:53;;;;;;;;;7.50;5.00;;;;;10.24;97.46;99584.44;6306395;20;1819079;-41
2021/10/22 05:49:22;;;;;;;;;3.00;3.00;;;;;10.33;97.78;99588.38;6319773;20;2732578;-45
2021/10/22 05:51:52;;;;;;;;;3.00;3.00;;;;;10.28;97.15;99596.72;6290800;20;2742943;-41
2021/10/22 05:54:20;;;;;;;;;3.00;3.00;;;;;10.24;97.53;99597.84;6290401;20;2751314;-42
2021/10/22 05:56:49;;;;;;;;;4.00;2.50;;;;;10.25;98.28;99604.91;6286377;20;2746203;-44
2021/10/22 05:59:18;;;;;;;;;3.50;3.50;;;;;10.18;98.80;99614.28;6288826;20;2744040;-41
2021/10/22 06:01:46;;;;;;;;;5.50;3.00;;;;;10.28;98.76;99620.00;6284494;20;2752321;-41
2021/10/22 06:04:14;;;;;;;;;6.00;6.00;;;;;10.43;98.40;99620.88;6291907;20;2744071;-41
2021/10/22 06:06:42;;;;;;;;;4.00;4.00;;;;;10.43;98.48;99619.06;6289921;20;2746137;-41
2021/10/22 06:09:11;;;;;;;;;4.50;4.50;;;;;10.55;98.01;99617.41;6289114;20;2741951;-42
2021/10/22 06:11:40;;;;;;;;;5.00;4.00;;;;;10.69;97.00;99620.13;6288404;20;2756615;-42
2021/10/22 06:14:08;;;;;;;;;4.00;4.00;;;;;10.83;96.45;99623.75;6292585;20;2754470;-42
2021/10/22 06:16:36;;;;;;;;;7.00;5.50;;;;;10.88;96.15;99625.19;6287951;20;2752378;-41
2021/10/22 06:19:05;;;;;;;;;3.50;3.00;;;;;10.93;96.22;99631.13;6304329;20;1809751;-44
2021/10/22 06:24:02;;;;;;;;;5.00;5.00;;;;;11.45;94.55;99640.28;6288932;20;2748159;-41
2021/10/22 06:26:40;;;;;;;;;3.00;3.00;;;;;11.51;93.43;99639.06;6287065;20;2744007;-41
2021/10/22 06:29:11;;;;;;;;;4.00;4.00;;;;;11.94;91.93;99638.88;6285730;20;2756521;-41
2021/10/22 06:31:41;;;;;;;;;5.50;4.50;;;;;12.03;91.29;99641.81;6291750;20;2745068;-44
2021/10/22 06:34:10;;;;;;;;;4.00;4.00;;;;;12.11;89.38;99648.47;6288332;20;2756516;-42
2021/10/22 06:36:38;;;;;;;;;4.00;4.00;;;;;12.40;88.27;99650.03;6291405;20;2748200;-43
2021/10/22 06:39:06;;;;;;;;;4.00;4.00;;;;;13.66;82.93;99659.81;6284900;20;2754484;-43
2021/10/22 06:41:35;;;;;;;;;4.00;4.00;;;;;15.31;76.01;99658.69;6289227;20;2752413;-42
2021/10/22 06:44:03;;;;;;;;;3.50;3.00;;;;;15.87;72.43;99666.69;6289388;20;2741904;-43
2021/10/22 06:46:31;;;;;;;;;5.00;3.00;;;;;16.63;69.04;99678.25;6290400;20;2743989;-43
2021/10/22 06:48:59;;;;;;;;;4.00;3.00;;;;;17.23;66.91;99681.16;6287562;20;2733629;-42
2021/10/22 06:51:28;;;;;;;;;4.00;4.00;;;;;14.88;74.66;99679.25;6318854;20;2756625;-41
2021/10/22 06:53:56;;;;;;;;;3.00;3.00;;;;;12.93;83.38;99682.25;6289494;20;2732606;-41
2021/10/22 06:56:24;;;;;;;;;5.00;3.00;;;;;16.03;74.95;99690.63;6289687;20;2747121;-41
2021/10/22 06:58:52;;;;;;;;;5.50;3.50;;;;;18.95;61.13;99700.56;6288498;20;2750544;-42
2021/10/22 07:01:20;;;;;;;;;3.00;3.00;;;;;15.18;71.75;99712.94;6287563;20;2754467;-42
2021/10/22 07:03:48;;;;;;;;;4.00;4.00;;;;;13.16;81.42;99702.13;6290961;20;2751313;-41
2021/10/22 07:09:03;;;;;;;;;4.00;4.00;;;;;13.09;83.06;99712.50;6288931;20;2752725;-43
2021/10/22 07:11:30;;;;;;;;;5.50;3.00;;;;;13.19;83.96;99718.09;6290565;20;2752348;-41
2021/10/22 07:13:59;;;;;;;;;4.00;4.00;;;;;13.34;83.61;99722.41;6288177;20;2752555;-41
2021/10/22 07:16:29;;;;;;;;;4.00;4.00;;;;;13.31;82.80;99722.63;6288543;20;2756630;-42
2021/10/22 07:18:57;;;;;;;;;5.00;4.00;;;;;13.25;83.19;99731.16;6289201;20;2746116;-43
2021/10/22 07:21:25;;;;;;;;;3.50;3.50;;;;;13.34;83.30;99733.19;6284609;20;2746066;-41
2021/10/22 07:23:53;;;;;;;;;5.50;4.00;;;;;13.51;82.59;99740.06;6285185;20;2754409;-41
2021/10/22 07:26:21;;;;;;;;;3.00;3.00;;;;;13.60;83.07;99742.09;6291464;20;2735676;-41
2021/10/22 07:28:49;;;;;;;;;5.00;5.00;;;;;13.59;83.67;99731.44;6287930;20;2746134;-41
2021/10/22 07:31:17;;;;;;;;;3.00;3.00;;;;;13.51;83.49;99739.22;6289485;20;2741944;-42
2021/10/22 07:33:47;;;;;;;;;5.00;2.50;;;;;13.67;83.13;99742.50;6291496;20;2741913;-44
2021/10/22 07:36:15;;;;;;;;;3.00;3.00;;;;;13.81;81.32;99747.75;6288115;20;2740384;-41
2021/10/22 07:38:44;;;;;;;;;5.00;4.00;;;;;13.53;82.44;99748.03;6284809;20;2756495;-44
2021/10/22 07:41:15;;;;;;;;;3.00;3.00;;;;;13.67;82.44;99747.06;6288221;20;2748156;-42
2021/10/22 07:43:44;;;;;;;;;4.50;3.00;;;;;13.83;82.08;99747.63;6287719;20;2736703;-44
2021/10/22 07:46:12;;;;;;;;;4.00;3.00;;;;;13.74;82.30;99756.41;6289809;20;2739847;-42
2021/10/22 07:48:42;;;;;;;;;3.50;2.50;;;;;14.05;81.34;99769.34;6284635;20;2750288;-42
2021/10/22 07:51:11;;;;;;;;;4.50;4.00;;;;;14.21;80.80;99771.75;6292958;20;2746509;-43
2021/10/22 07:53:41;;;;;;;;;5.00;2.75;;;;;13.76;80.87;99776.03;6309363;20;1806634;-42
2021/10/22 07:56:10;;;;;;;;;3.80;2.60;;;;;14.09;79.84;99782.63;6347742;20;2753451;-41
2021/10/22 07:58:38;;;;;;;;;3.00;3.00;;;;;13.94;80.07;99768.44;6322170;20;2756649;-44
2021/10/22 08:01:06;;;;;;;;;4.00;2.50;;;;;14.00;79.82;99770.66;6294734;20;2755464;-42
2021/10/22 08:03:34;;;;;;;;;3.00;3.00;;;;;14.11;79.62;99776.13;6293501;20;2752327;-42
2021/10/22 08:06:03;;;;;;;;;3.00;3.00;;;;;14.46;78.12;99780.72;6309094;20;1807730;-42
2021/10/22 08:08:31;;;;;;;;;6.00;6.00;;;;;14.63;77.83;99772.19;6322869;20;2747163;-41
2021/10/22 08:11:00;;;;;;;;;4.00;4.00;;;;;14.48;79.52;99778.75;6291862;20;2750263;-42
2021/10/22 08:13:27;;;;;;;;;9.00;6.00;;;;;14.26;79.29;99784.91;6300008;20;2622190;-42
2021/10/22 08:15:57;;;;;;;;;6.50;5.00;;;;;14.03;79.56;99789.34;6296902;20;2747164;-41
2021/10/22 08:18:26;;;;;;;;;5.00;4.00;;;;;14.07;79.45;99785.44;6289943;20;2748273;-41
2021/10/22 08:21:16;;;;;;;;;6.00;6.00;;;;;14.61;78.25;99781.41;6293837;20;2747128;-43
2021/10/22 08:23:50;;;;;;;;;5.00;5.00;;;;;14.33;79.43;99786.19;6291863;20;2737762;-42
2021/10/22 08:26:18;;;;;;;;;6.00;3.00;;;;;14.04;80.72;99780.28;6290576;20;2750295;-41
2021/10/22 08:28:46;;;;;;;;;5.00;3.00;;;;;13.78;80.60;99774.97;6292401;20;2741931;-41
2021/10/22 08:31:14;;;;;;;;;3.00;3.00;;;;;14.14;79.29;99777.72;6293821;20;2738798;-42
2021/10/22 08:33:42;;;;;;;;;3.00;3.00;;;;;14.16;79.22;99787.44;6292019;20;2737758;-41
2021/10/22 08:36:10;;;;;;;;;3.00;3.00;;;;;14.05;79.34;99776.59;6293502;20;2740903;-43
2021/10/22 08:38:39;;;;;;;;;5.00;3.00;;;;;14.20;78.97;99775.44;6290872;20;2752362;-41
2021/10/22 08:41:17;;;;;;;;;4.00;2.50;;;;;14.78;76.47;99772.88;6295456;20;2741915;-41
2021/10/22 08:43:52;;;;;;;;;3.40;2.60;;;;;14.91;74.93;99770.06;6311944;20;2754408;-42
2021/10/22 08:46:22;;;;;;;;;2.50;2.50;;;;;14.99;74.04;99767.63;6293685;20;2744090;-43
2021/10/22 08:48:50;;;;;;;;;2.50;2.50;;;;;14.60;75.87;99761.63;6292034;20;2752366;-43
2021/10/22 08:51:19;;;;;;;;;4.50;2.50;;;;;14.85;73.91;99765.13;6295108;20;2754529;-41
2021/10/22 08:53:48;;;;;;;;;2.00;2.00;;;;;15.16;73.14;99763.56;6293882;20;2744006;-41
2021/10/22 08:56:19;;;;;;;;;3.00;2.00;;;;;15.22;72.95;99755.00;6295034;20;2744001;-41
2021/10/22 08:58:47;;;;;;;;;2.00;2.00;;;;;15.02;73.42;99772.78;6291109;20;2748163;-44
2021/10/22 09:01:18;;;;;;;;;4.00;3.60;;;;;15.73;71.29;99769.88;6333448;20;2483581;-42
2021/10/22 09:03:46;;;;;;;;;2.00;2.00;;;;;15.85;70.57;99755.34;6318646;20;2752492;-42
2021/10/22 09:06:14;;;;;;;;;3.00;3.00;;;;;15.87;70.46;99758.75;6294821;20;2733597;-43
2021/10/22 09:08:45;;;;;;;;;2.00;2.00;;;;;16.27;69.90;99757.28;6291879;20;2753446;-44
2021/10/22 09:11:38;;;;;;;;;3.00;3.00;;;;;15.91;69.24;99753.97;6290781;20;2755493;-43
2021/10/22 09:14:20;;;;;;;;;4.00;2.00;;;;;15.80;70.05;99757.56;6294286;20;2754450;-43
2021/10/22 09:16:50;;;;;;;;;4.00;2.50;;;;;16.07;69.68;99758.97;6292832;20;2755017;-46
2021/10/22 09:19:28;;;;;;;;;1.00;1.00;;;;;16.49;68.02;99759.06;6291770;20;2726335;-42
2021/10/22 09:21:59;;;;;;;;;3.00;2.00;;;;;16.95;67.88;99755.09;6291868;20;2756500;-42
2021/10/22 09:24:33;;;;;;;;;1.00;1.00;;;;;16.35;66.69;99760.19;6305957;20;1797265;-42
2021/10/22 09:27:03;;;;;;;;;0.50;0.00;;;;;17.03;64.52;99758.00;6322916;20;2727464;-41
2021/10/22 09:29:30;;;;;;;;;3.00;1.00;;;;;16.53;65.60;99765.91;6296984;20;2725279;-43
2021/10/22 09:31:59;;;;;;;;;1.00;1.00;;;;;16.85;65.69;99758.63;6298678;20;2750327;-44
2021/10/22 09:34:37;;;;;;;;;2.00;0.00;;;;;16.06;65.04;99759.94;6298976;20;2730466;-42
2021/10/22 09:37:12;;;;;;;;;1.00;1.00;;;;;16.64;64.15;99763.13;6312873;20;1793652;-42
2021/10/22 09:39:40;;;;;;;;;2.50;1.00;;;;;15.81;64.36;99770.09;6323899;20;2737803;-43
2021/10/22 09:42:19;;;;;;;;;1.00;1.00;;;;;16.42;63.84;99767.69;6294121;20;2726332;-42
2021/10/22 09:44:48;;;;;;;;;1.00;1.00;;;;;17.02;62.87;99757.16;6295159;20;2729404;-43
2021/10/22 09:47:20;;;;;;;;;3.00;0.50;;;;;16.27;63.41;99763.56;6293491;20;2733614;-42
2021/10/22 09:49:53;;;;;;;;;1.00;0.00;;;;;16.73;62.71;99770.50;6295166;20;2731545;-43
2021/10/22 09:52:26;;;;;;;;;4.00;1.00;;;;;16.56;65.46;99765.66;6294462;20;2737762;-43
2021/10/22 09:55:12;;;;;;;;;1.00;1.00;;;;;16.72;65.55;99763.38;6293663;20;2728370;-43
2021/10/22 09:57:44;;;;;;;;;0.50;0.00;;;;;16.36;65.28;99770.91;6294832;20;2727333;-42
2021/10/22 10:00:22;;;;;;;;;1.00;1.00;;;;;16.54;65.19;99764.94;6294091;20;2742033;-43
2021/10/22 10:02:50;;;;;;;;;1.00;1.00;;;;;16.87;64.64;99780.19;6293235;20;2727375;-41
2021/10/22 10:05:18;;;;;;;;;1.00;1.00;;;;;16.45;64.65;99775.53;6298783;20;2727394;-43
2021/10/22 10:07:47;;;;;;;;;0.00;0.00;;;;;16.32;64.68;99779.44;6297086;20;2727476;-42
2021/10/22 10:10:15;;;;;;;;;0.00;0.00;;;;;16.15;64.04;99775.44;6291691;20;2729397;-43
2021/10/22 10:12:45;;;;;;;;;0.00;0.00;;;;;16.87;63.45;99778.31;6293802;20;2733633;-44
2021/10/22 10:15:13;;;;;;;;;0.00;0.00;;;;;16.66;63.14;99782.84;6302582;20;2617963;-42
2021/10/22 10:17:48;;;;;;;;;0.00;0.00;;;;;16.61;63.75;99788.69;6294238;20;2727320;-42
2021/10/22 10:20:25;;;;;;;;;1.00;1.00;;;;;16.36;64.37;99780.91;6323779;20;2735768;-42
2021/10/22 10:22:55;;;;;;;;;2.00;1.00;;;;;16.32;63.99;99774.00;6293006;20;2731512;-44
2021/10/22 10:25:26;;;;;;;;;1.33;1.00;;;;;16.85;62.31;99772.19;6293058;20;2731526;-43
2021/10/22 10:27:57;;;;;;;;;1.00;0.00;;;;;16.53;62.65;99768.63;6322220;20;2727492;-42
2021/10/22 10:30:45;;;;;;;;;1.00;1.00;;;;;16.50;62.46;99777.88;6295022;20;2727379;-42
2021/10/22 10:33:36;;;;;;;;;2.00;1.00;;;;;16.48;62.31;99776.28;6293167;20;2740903;-43
2021/10/22 10:36:04;;;;;;;;;0.00;0.00;;;;;16.45;62.26;99766.56;6291431;20;2733590;-44
2021/10/22 10:38:46;;;;;;;;;0.00;0.00;;;;;16.26;62.33;99759.13;6293032;20;2727379;-43
2021/10/22 10:41:19;;;;;;;;;0.00;0.00;;;;;16.16;62.26;99759.03;6307864;20;1793537;-42
2021/10/22 10:43:47;;;;;;;;;0.00;0.00;;;;;16.57;62.44;99761.97;6320819;20;2725241;-42
2021/10/22 10:46:41;;;;;;;;;1.00;0.00;;;;;16.78;61.09;99757.44;6293505;20;2724222;-41
2021/10/22 10:49:09;;;;;;;;;0.00;0.00;;;;;16.36;62.17;99753.81;6290501;20;2735893;-42
2021/10/22 10:51:41;;;;;;;;;0.00;0.00;;;;;16.35;62.16;99752.06;6293852;20;2727322;-41
2021/10/22 10:54:08;;;;;;;;;1.00;0.00;;;;;16.73;62.53;99745.25;6292572;20;2735719;-43
2021/10/22 10:56:40;;;;;;;;;1.00;1.00;;;;;16.69;61.45;99744.63;6290172;20;2722160;-43
2021/10/22 10:59:09;;;;;;;;;2.00;1.00;;;;;16.64;61.54;99744.16;6292706;20;2744323;-44
2021/10/22 11:01:39;;;;;;;;;5.00;0.00;;;;;16.80;60.96;99752.75;6293317;20;2689244;-44
2021/10/22 11:04:07;;;;;;;;;3.50;0.00;;;;;17.17;60.44;99748.66;6292886;20;2739839;-42
2021/10/22 11:06:52;;;;;;;;;0.00;0.00;;;;;16.88;60.10;99738.53;6296015;20;2727344;-43
2021/10/22 11:09:35;;;;;;;;;0.00;0.00;;;;;17.00;60.03;99742.88;6295875;20;2735685;-41
2021/10/22 11:12:04;;;;;;;;;0.00;0.00;;;;;16.81;60.72;99732.75;6321882;20;2731481;-43
2021/10/22 11:14:45;;;;;;;;;0.00;0.00;;;;;16.78;61.05;99734.91;6296017;20;2730492;-42
2021/10/22 11:17:28;;;;;;;;;0.00;0.00;;;;;16.76;60.39;99737.69;6296633;20;2727475;-42
2021/10/22 11:19:58;;;;;;;;;1.00;1.00;;;;;16.76;60.24;99729.56;6319420;20;2732542;-41
2021/10/22 11:22:29;;;;;;;;;0.00;0.00;;;;;16.98;59.73;99728.59;6294362;20;2727337;-42
2021/10/22 11:24:58;;;;;;;;;1.00;1.00;;;;;16.83;59.57;99728.06;6321885;20;2739833;-41
2021/10/22 11:27:25;;;;;;;;;0.00;0.00;;;;;16.99;59.54;99729.44;6327679;20;2728363;-42
2021/10/22 11:29:59;;;;;;;;;1.00;1.00;;;;;16.89;59.38;99727.53;6294821;20;2745154;-41
2021/10/22 11:32:29;;;;;;;;;1.00;1.00;;;;;16.99;59.01;99722.16;6323761;20;2727408;-41
2021/10/22 11:35:04;;;;;;;;;1.00;1.00;;;;;16.76;60.40;99712.44;6299823;20;2726285;-41
2021/10/22 11:37:40;;;;;;;;;1.00;0.00;;;;;16.85;60.44;99722.50;6298964;20;2720057;-44
2021/10/22 11:40:14;;;;;;;;;1.00;1.00;;;;;16.49;60.50;99704.84;6342207;20;3439855;-41